createdAt,value
2018-05-29T00:00:54.548Z,0.00
2018-05-29T00:01:54.545Z,0.00
2018-05-29T00:02:54.549Z,0.00
2018-05-29T00:03:54.546Z,0.00
2018-05-29T00:04:54.546Z,0.00
2018-05-29T00:05:54.542Z,0.00
2018-05-29T00:06:54.540Z,0.00
2018-05-29T00:07:54.538Z,0.00
2018-05-29T00:08:54.535Z,0.00
2018-05-29T00:09:54.539Z,0.00
2018-05-29T00:10:54.537Z,0.00
2018-05-29T00:11:54.531Z,0.00
2018-05-29T00:12:54.537Z,0.00
2018-05-29T00:13:54.532Z,0.00
2018-05-29T00:14:54.525Z,0.00
2018-05-29T00:15:54.542Z,0.00
2018-05-29T00:16:54.548Z,0.00
2018-05-29T00:17:54.530Z,0.00
2018-05-29T00:18:54.534Z,0.00
2018-05-29T00:19:54.534Z,0.00
2018-05-29T00:20:54.539Z,0.00
2018-05-29T00:21:54.541Z,0.00
2018-05-29T00:22:54.508Z,0.00
2018-05-29T00:23:54.545Z,0.00
2018-05-29T00:24:54.509Z,0.00
2018-05-29T00:25:54.531Z,0.00
2018-05-29T00:26:54.504Z,0.00
2018-05-29T00:27:54.501Z,0.00
2018-05-29T00:28:54.499Z,0.00
2018-05-29T00:29:54.495Z,0.00
2018-05-29T00:30:54.515Z,0.00
2018-05-29T00:31:54.498Z,0.00
2018-05-29T00:32:54.491Z,0.00
2018-05-29T00:33:54.489Z,0.00
2018-05-29T00:34:54.489Z,0.00
2018-05-29T00:35:54.489Z,0.00
2018-05-29T00:36:54.490Z,0.00
2018-05-29T00:37:54.489Z,0.00
2018-05-29T00:38:54.479Z,0.00
2018-05-29T00:39:54.477Z,0.00
2018-05-29T00:40:54.478Z,0.00
2018-05-29T00:41:54.475Z,0.00
2018-05-29T00:42:54.477Z,0.00
2018-05-29T00:43:54.470Z,0.00
2018-05-29T00:44:54.469Z,0.00
2018-05-29T00:45:54.467Z,0.00
2018-05-29T00:46:54.468Z,0.00
2018-05-29T00:47:54.466Z,0.00
2018-05-29T00:48:54.464Z,0.00
2018-05-29T00:49:54.456Z,0.00
2018-05-29T00:50:54.455Z,0.00
2018-05-29T00:51:54.453Z,0.00
2018-05-29T00:52:54.455Z,0.00
2018-05-29T00:53:54.456Z,0.00
2018-05-29T00:54:54.449Z,0.00
2018-05-29T00:55:54.445Z,0.00
2018-05-29T00:56:54.443Z,0.00
2018-05-29T00:57:54.439Z,0.00
2018-05-29T00:58:54.437Z,0.00
2018-05-29T00:59:54.439Z,0.00
2018-05-29T01:00:54.434Z,0.00
2018-05-29T01:01:54.435Z,0.00
2018-05-29T01:02:54.431Z,0.00
2018-05-29T01:03:54.427Z,0.00
2018-05-29T01:04:54.428Z,0.00
2018-05-29T01:05:54.425Z,0.00
2018-05-29T01:06:54.425Z,0.00
2018-05-29T01:07:54.421Z,0.00
2018-05-29T01:08:54.420Z,0.00
2018-05-29T01:09:54.412Z,0.00
2018-05-29T01:10:54.417Z,0.00
2018-05-29T01:11:54.409Z,0.00
2018-05-29T01:12:54.410Z,0.00
2018-05-29T01:13:54.409Z,0.00
2018-05-29T01:14:54.404Z,0.00
2018-05-29T01:15:54.411Z,0.00
2018-05-29T01:16:54.400Z,0.00
2018-05-29T01:17:54.397Z,0.00
2018-05-29T01:18:54.398Z,0.00
2018-05-29T01:19:54.398Z,0.00
2018-05-29T01:20:54.396Z,0.00
2018-05-29T01:21:54.393Z,0.00
2018-05-29T01:22:54.387Z,0.00
2018-05-29T01:23:54.384Z,0.00
2018-05-29T01:24:54.418Z,0.00
2018-05-29T01:25:54.405Z,0.00
2018-05-29T01:26:54.380Z,0.00
2018-05-29T01:27:54.382Z,0.00
2018-05-29T01:28:54.375Z,0.00
2018-05-29T01:29:54.377Z,0.00
2018-05-29T01:30:54.379Z,0.00
2018-05-29T01:31:54.371Z,0.00
2018-05-29T01:32:54.365Z,0.00
2018-05-29T01:33:54.369Z,0.00
2018-05-29T01:34:54.365Z,0.00
2018-05-29T01:35:54.363Z,0.00
2018-05-29T01:36:54.361Z,0.00
2018-05-29T01:37:54.354Z,0.00
2018-05-29T01:38:54.355Z,0.00
2018-05-29T01:39:54.351Z,0.00
2018-05-29T01:40:54.351Z,0.00
2018-05-29T01:41:54.347Z,0.00
2018-05-29T01:42:54.349Z,0.00
2018-05-29T01:43:54.343Z,0.00
2018-05-29T01:44:54.345Z,0.00
2018-05-29T01:45:54.336Z,0.00
2018-05-29T01:46:54.335Z,0.00
2018-05-29T01:47:54.339Z,0.00
2018-05-29T01:48:54.333Z,0.00
2018-05-29T01:49:54.330Z,0.00
2018-05-29T01:50:54.325Z,0.00
2018-05-29T01:51:54.323Z,0.00
2018-05-29T01:52:54.323Z,0.00
2018-05-29T01:53:54.320Z,0.00
2018-05-29T01:54:54.317Z,0.00
2018-05-29T01:55:54.319Z,0.00
2018-05-29T01:56:54.317Z,0.00
2018-05-29T01:57:54.312Z,0.00
2018-05-29T01:58:54.317Z,0.00
2018-05-29T01:59:54.305Z,0.00
2018-05-29T02:00:54.313Z,0.00
2018-05-29T02:01:54.301Z,0.00
2018-05-29T02:02:54.302Z,0.00
2018-05-29T02:03:54.299Z,0.00
2018-05-29T02:04:54.314Z,0.00
2018-05-29T02:05:54.293Z,0.00
2018-05-29T02:06:54.294Z,0.00
2018-05-29T02:07:54.290Z,0.00
2018-05-29T02:08:54.289Z,0.00
2018-05-29T02:09:54.287Z,0.00
2018-05-29T02:10:54.300Z,0.00
2018-05-29T02:11:54.280Z,0.00
2018-05-29T02:12:54.276Z,0.00
2018-05-29T02:13:54.275Z,0.00
2018-05-29T02:14:54.271Z,0.00
2018-05-29T02:15:54.274Z,0.00
2018-05-29T02:16:54.272Z,0.00
2018-05-29T02:17:54.267Z,0.00
2018-05-29T02:18:54.266Z,0.00
2018-05-29T02:19:54.259Z,0.00
2018-05-29T02:20:54.256Z,0.00
2018-05-29T02:21:54.255Z,0.00
2018-05-29T02:22:54.252Z,0.00
2018-05-29T02:23:54.254Z,0.00
2018-05-29T02:24:54.252Z,0.00
2018-05-29T02:25:54.245Z,0.00
2018-05-29T02:26:54.245Z,0.00
2018-05-29T02:27:54.245Z,0.00
2018-05-29T02:28:54.239Z,0.00
2018-05-29T02:29:54.239Z,0.00
2018-05-29T02:30:54.236Z,0.00
2018-05-29T02:31:54.237Z,0.00
2018-05-29T02:32:54.261Z,0.00
2018-05-29T02:33:54.225Z,0.00
2018-05-29T02:34:54.224Z,0.00
2018-05-29T02:35:54.221Z,0.00
2018-05-29T02:36:54.224Z,0.00
2018-05-29T02:37:54.223Z,0.00
2018-05-29T02:38:54.219Z,0.00
2018-05-29T02:39:54.218Z,0.00
2018-05-29T02:40:54.212Z,0.00
2018-05-29T02:41:54.208Z,0.00
2018-05-29T02:42:54.207Z,0.00
2018-05-29T02:43:54.212Z,0.00
2018-05-29T02:44:54.201Z,0.00
2018-05-29T02:45:54.200Z,0.00
2018-05-29T02:46:54.199Z,0.00
2018-05-29T02:47:54.197Z,0.00
2018-05-29T02:48:54.204Z,0.00
2018-05-29T02:49:54.187Z,0.00
2018-05-29T02:50:54.189Z,0.00
2018-05-29T02:51:54.188Z,0.00
2018-05-29T02:52:54.187Z,0.00
2018-05-29T02:53:54.180Z,0.00
2018-05-29T02:54:54.174Z,0.00
2018-05-29T02:55:54.172Z,0.00
2018-05-29T02:56:54.172Z,0.00
2018-05-29T02:57:54.176Z,0.00
2018-05-29T02:58:54.168Z,0.00
2018-05-29T02:59:54.169Z,0.00
2018-05-29T03:00:54.161Z,0.00
2018-05-29T03:01:54.157Z,0.00
2018-05-29T03:02:54.154Z,5.63
2018-05-29T03:03:54.155Z,5.63
2018-05-29T03:04:54.153Z,5.63
2018-05-29T03:05:54.150Z,5.63
2018-05-29T03:06:54.146Z,5.63
2018-05-29T03:07:54.145Z,5.63
2018-05-29T03:08:54.140Z,11.25
2018-05-29T03:09:54.141Z,11.25
2018-05-29T03:10:54.134Z,11.25
2018-05-29T03:11:54.136Z,11.25
2018-05-29T03:12:54.133Z,11.25
2018-05-29T03:13:54.130Z,11.25
2018-05-29T03:14:54.128Z,16.88
2018-05-29T03:15:54.120Z,16.88
2018-05-29T03:16:54.120Z,16.88
2018-05-29T03:17:54.124Z,16.88
2018-05-29T03:18:54.118Z,16.88
2018-05-29T03:19:54.116Z,22.50
2018-05-29T03:20:54.148Z,22.50
2018-05-29T03:21:54.107Z,22.50
2018-05-29T03:22:54.103Z,22.50
2018-05-29T03:23:54.105Z,28.13
2018-05-29T03:24:54.099Z,28.13
2018-05-29T03:25:54.099Z,28.13
2018-05-29T03:26:54.099Z,33.75
2018-05-29T03:27:54.090Z,33.75
2018-05-29T03:28:54.095Z,39.38
2018-05-29T03:29:54.085Z,39.38
2018-05-29T03:30:54.084Z,45.00
2018-05-29T03:31:54.081Z,45.00
2018-05-29T03:32:54.085Z,50.63
2018-05-29T03:33:54.081Z,50.63
2018-05-29T03:34:54.078Z,56.25
2018-05-29T03:35:54.069Z,61.88
2018-05-29T03:36:54.069Z,61.88
2018-05-29T03:37:54.066Z,67.50
2018-05-29T03:38:54.064Z,73.13
2018-05-29T03:39:54.067Z,73.13
2018-05-29T03:40:54.060Z,78.75
2018-05-29T03:41:54.057Z,78.75
2018-05-29T03:42:54.059Z,84.38
2018-05-29T03:43:54.057Z,90.00
2018-05-29T03:44:54.057Z,90.00
2018-05-29T03:45:54.043Z,95.63
2018-05-29T03:46:54.052Z,95.63
2018-05-29T03:47:54.040Z,95.63
2018-05-29T03:48:54.042Z,101.25
2018-05-29T03:49:54.048Z,101.25
2018-05-29T03:50:54.039Z,106.88
2018-05-29T03:51:54.037Z,106.88
2018-05-29T03:52:54.029Z,112.50
2018-05-29T03:53:54.029Z,112.50
2018-05-29T03:54:54.040Z,118.13
2018-05-29T03:55:54.024Z,123.75
2018-05-29T03:56:54.019Z,123.75
2018-05-29T03:57:54.016Z,129.38
2018-05-29T03:58:54.012Z,129.38
2018-05-29T03:59:54.011Z,135.00
2018-05-29T04:00:54.007Z,140.63
2018-05-29T04:01:54.008Z,140.63
2018-05-29T04:02:54.004Z,146.25
2018-05-29T04:03:54.004Z,146.25
2018-05-29T04:04:53.996Z,151.88
2018-05-29T04:05:53.994Z,157.50
2018-05-29T04:06:53.990Z,157.50
2018-05-29T04:07:53.988Z,163.13
2018-05-29T04:08:53.989Z,163.13
2018-05-29T04:09:53.998Z,168.75
2018-05-29T04:10:53.984Z,168.75
2018-05-29T04:11:53.986Z,174.38
2018-05-29T04:12:53.975Z,174.38
2018-05-29T04:13:53.982Z,180.00
2018-05-29T04:14:53.974Z,180.00
2018-05-29T04:15:54.055Z,180.00
2018-05-29T04:16:53.996Z,185.63
2018-05-29T04:17:53.963Z,185.63
2018-05-29T04:18:53.958Z,191.25
2018-05-29T04:19:53.958Z,191.25
2018-05-29T04:20:53.962Z,196.88
2018-05-29T04:21:53.970Z,202.50
2018-05-29T04:22:53.954Z,202.50
2018-05-29T04:23:53.954Z,208.13
2018-05-29T04:24:53.954Z,208.13
2018-05-29T04:25:53.944Z,213.75
2018-05-29T04:26:53.942Z,219.38
2018-05-29T04:27:53.939Z,219.38
2018-05-29T04:28:53.942Z,225.00
2018-05-29T04:29:53.936Z,230.63
2018-05-29T04:30:53.932Z,236.25
2018-05-29T04:31:53.933Z,241.88
2018-05-29T04:32:53.928Z,241.88
2018-05-29T04:33:53.923Z,247.50
2018-05-29T04:34:53.922Z,253.13
2018-05-29T04:35:53.921Z,258.75
2018-05-29T04:36:53.917Z,264.38
2018-05-29T04:37:53.916Z,270.00
2018-05-29T04:38:53.912Z,275.63
2018-05-29T04:39:53.911Z,275.63
2018-05-29T04:40:53.907Z,286.88
2018-05-29T04:41:53.923Z,286.88
2018-05-29T04:42:53.903Z,292.50
2018-05-29T04:43:53.900Z,298.13
2018-05-29T04:44:53.899Z,303.75
2018-05-29T04:45:53.895Z,309.38
2018-05-29T04:46:53.891Z,315.00
2018-05-29T04:47:53.893Z,320.63
2018-05-29T04:48:53.891Z,331.88
2018-05-29T04:49:53.888Z,331.88
2018-05-29T04:50:53.882Z,337.50
2018-05-29T04:51:53.894Z,343.13
2018-05-29T04:52:53.881Z,343.13
2018-05-29T04:53:53.879Z,348.75
2018-05-29T04:54:53.875Z,354.38
2018-05-29T04:55:53.873Z,365.63
2018-05-29T04:56:53.868Z,376.88
2018-05-29T04:57:53.867Z,382.50
2018-05-29T04:58:53.863Z,376.88
2018-05-29T04:59:53.862Z,382.50
2018-05-29T05:00:53.856Z,382.50
2018-05-29T05:01:53.859Z,388.13
2018-05-29T05:02:53.853Z,393.75
2018-05-29T05:03:53.867Z,405.00
2018-05-29T05:04:53.852Z,410.63
2018-05-29T05:05:53.881Z,416.25
2018-05-29T05:06:53.848Z,421.88
2018-05-29T05:07:53.871Z,427.50
2018-05-29T05:08:53.841Z,438.75
2018-05-29T05:09:53.833Z,461.25
2018-05-29T05:10:53.837Z,528.75
2018-05-29T05:11:53.833Z,703.13
2018-05-29T05:12:53.834Z,838.13
2018-05-29T05:13:53.828Z,860.63
2018-05-29T05:14:53.827Z,883.13
2018-05-29T05:15:53.822Z,956.25
2018-05-29T05:16:53.821Z,1006.88
2018-05-29T05:17:53.823Z,1029.38
2018-05-29T05:18:53.819Z,1080.00
2018-05-29T05:19:53.841Z,1108.13
2018-05-29T05:20:53.817Z,1125.00
2018-05-29T05:21:53.813Z,1153.13
2018-05-29T05:22:53.812Z,1192.50
2018-05-29T05:23:53.814Z,1209.38
2018-05-29T05:24:53.808Z,1254.38
2018-05-29T05:25:53.807Z,1366.88
2018-05-29T05:26:53.803Z,1428.75
2018-05-29T05:27:53.811Z,1473.75
2018-05-29T05:28:53.804Z,1501.88
2018-05-29T05:29:53.802Z,1468.13
2018-05-29T05:30:53.801Z,1524.38
2018-05-29T05:31:53.808Z,1541.25
2018-05-29T05:32:53.801Z,1586.25
2018-05-29T05:33:53.796Z,1586.25
2018-05-29T05:34:53.806Z,1535.63
2018-05-29T05:35:53.806Z,1513.13
2018-05-29T05:36:53.791Z,1580.63
2018-05-29T05:37:53.789Z,1586.25
2018-05-29T05:38:53.792Z,1636.88
2018-05-29T05:39:53.793Z,1681.88
2018-05-29T05:40:53.796Z,1698.75
2018-05-29T05:41:53.811Z,1721.25
2018-05-29T05:42:53.799Z,1749.38
2018-05-29T05:43:53.788Z,1816.88
2018-05-29T05:44:53.795Z,1726.88
2018-05-29T05:45:53.796Z,1653.75
2018-05-29T05:46:53.808Z,1828.13
2018-05-29T05:47:53.789Z,1918.13
2018-05-29T05:48:53.793Z,2041.88
2018-05-29T05:49:53.790Z,2126.25
2018-05-29T05:50:53.859Z,2041.88
2018-05-29T05:51:53.787Z,2019.38
2018-05-29T05:52:53.787Z,2098.13
2018-05-29T05:53:53.791Z,2081.25
2018-05-29T05:54:53.791Z,2025.00
2018-05-29T05:55:53.792Z,2047.50
2018-05-29T05:56:53.799Z,2120.63
2018-05-29T05:57:53.804Z,2272.50
2018-05-29T05:58:53.810Z,2385.00
2018-05-29T05:59:53.803Z,2581.88
2018-05-29T06:00:53.798Z,2598.75
2018-05-29T06:01:53.808Z,2581.88
2018-05-29T06:02:53.820Z,2626.88
2018-05-29T06:03:53.823Z,2559.38
2018-05-29T06:04:53.802Z,2536.88
2018-05-29T06:05:53.807Z,2666.25
2018-05-29T06:06:53.816Z,2683.13
2018-05-29T06:07:53.803Z,2621.25
2018-05-29T06:08:53.813Z,2469.38
2018-05-29T06:09:53.806Z,1541.25
2018-05-29T06:10:53.807Z,1130.63
2018-05-29T06:11:53.813Z,2103.75
2018-05-29T06:12:53.820Z,2840.63
2018-05-29T06:13:53.818Z,2880.00
2018-05-29T06:14:53.824Z,2677.50
2018-05-29T06:15:53.820Z,2154.38
2018-05-29T06:16:53.824Z,1608.75
2018-05-29T06:17:53.830Z,1389.38
2018-05-29T06:18:53.832Z,1355.63
2018-05-29T06:19:53.829Z,1338.75
2018-05-29T06:20:53.840Z,1321.88
2018-05-29T06:21:53.834Z,1310.63
2018-05-29T06:22:53.837Z,1316.25
2018-05-29T06:23:53.851Z,1710.00
2018-05-29T06:24:53.842Z,1788.75
2018-05-29T06:25:53.842Z,1608.75
2018-05-29T06:26:53.848Z,1490.63
2018-05-29T06:27:53.852Z,1462.50
2018-05-29T06:28:53.870Z,1597.50
2018-05-29T06:29:53.858Z,2430.00
2018-05-29T06:30:53.860Z,3060.00
2018-05-29T06:31:53.867Z,3144.38
2018-05-29T06:32:53.866Z,3436.88
2018-05-29T06:33:53.871Z,3735.00
2018-05-29T06:34:53.871Z,3943.13
2018-05-29T06:35:53.876Z,3746.25
2018-05-29T06:36:53.879Z,3785.63
2018-05-29T06:37:53.886Z,3611.25
2018-05-29T06:38:53.884Z,3498.75
2018-05-29T06:39:53.891Z,3583.13
2018-05-29T06:40:53.891Z,3650.63
2018-05-29T06:41:53.896Z,3628.13
2018-05-29T06:42:53.907Z,3667.50
2018-05-29T06:43:53.911Z,3712.50
2018-05-29T06:44:53.983Z,3723.75
2018-05-29T06:45:53.913Z,3819.38
2018-05-29T06:46:53.917Z,3870.00
2018-05-29T06:47:53.947Z,3841.88
2018-05-29T06:48:53.936Z,3796.88
2018-05-29T06:49:53.933Z,3875.63
2018-05-29T06:50:53.941Z,4117.50
2018-05-29T06:51:53.938Z,4162.50
2018-05-29T06:52:53.943Z,3965.63
2018-05-29T06:53:53.954Z,3982.50
2018-05-29T06:54:53.963Z,3915.00
2018-05-29T06:55:53.964Z,4055.63
2018-05-29T06:56:53.964Z,4241.25
2018-05-29T06:57:53.970Z,4353.75
2018-05-29T06:58:53.976Z,4185.00
2018-05-29T06:59:53.981Z,4218.75
2018-05-29T07:00:53.986Z,4162.50
2018-05-29T07:01:53.989Z,4016.25
2018-05-29T07:02:53.996Z,4117.50
2018-05-29T07:03:54.063Z,4207.50
2018-05-29T07:04:54.010Z,4365.00
2018-05-29T07:05:54.037Z,4381.88
2018-05-29T07:06:54.022Z,4578.75
2018-05-29T07:07:54.021Z,4725.00
2018-05-29T07:08:54.034Z,4741.88
2018-05-29T07:09:54.031Z,4601.25
2018-05-29T07:10:54.047Z,4550.63
2018-05-29T07:11:54.047Z,4663.13
2018-05-29T07:12:54.049Z,4933.13
2018-05-29T07:13:54.058Z,5045.63
2018-05-29T07:14:54.066Z,4820.63
2018-05-29T07:15:54.067Z,4646.25
2018-05-29T07:16:54.077Z,4483.13
2018-05-29T07:17:54.083Z,4471.88
2018-05-29T07:18:54.090Z,4629.38
2018-05-29T07:19:54.099Z,4680.00
2018-05-29T07:20:54.099Z,4691.25
2018-05-29T07:21:54.106Z,4578.75
2018-05-29T07:22:54.109Z,4432.50
2018-05-29T07:23:54.116Z,4561.88
2018-05-29T07:24:54.127Z,4837.50
2018-05-29T07:25:54.131Z,5006.25
2018-05-29T07:26:54.134Z,5017.50
2018-05-29T07:27:54.143Z,5006.25
2018-05-29T07:28:54.150Z,5113.13
2018-05-29T07:29:54.159Z,5326.88
2018-05-29T07:30:54.160Z,5467.50
2018-05-29T07:31:54.178Z,5332.50
2018-05-29T07:32:54.201Z,5236.88
2018-05-29T07:33:54.179Z,5276.25
2018-05-29T07:34:54.186Z,5405.63
2018-05-29T07:35:54.190Z,5478.75
2018-05-29T07:36:54.200Z,5467.50
2018-05-29T07:37:54.207Z,5490.00
2018-05-29T07:38:54.218Z,5394.38
2018-05-29T07:39:54.220Z,5405.63
2018-05-29T07:40:54.225Z,5388.75
2018-05-29T07:41:54.231Z,5388.75
2018-05-29T07:42:54.240Z,5343.75
2018-05-29T07:43:54.248Z,5360.63
2018-05-29T07:44:54.253Z,5355.00
2018-05-29T07:45:54.258Z,5445.00
2018-05-29T07:46:54.270Z,5529.38
2018-05-29T07:47:54.278Z,5394.38
2018-05-29T07:48:54.309Z,5175.00
2018-05-29T07:49:54.289Z,5124.38
2018-05-29T07:50:54.295Z,5332.50
2018-05-29T07:51:54.309Z,5506.88
2018-05-29T07:52:54.313Z,5478.75
2018-05-29T07:53:54.316Z,5456.25
2018-05-29T07:54:54.325Z,5658.75
2018-05-29T07:55:54.330Z,5523.75
2018-05-29T07:56:54.338Z,5428.13
2018-05-29T07:57:54.346Z,5428.13
2018-05-29T07:58:54.408Z,5163.75
2018-05-29T07:59:54.359Z,5056.88
2018-05-29T08:00:54.408Z,5175.00
2018-05-29T08:01:54.398Z,5293.13
2018-05-29T08:02:54.383Z,5439.38
2018-05-29T08:03:54.410Z,5461.88
2018-05-29T08:04:54.397Z,5366.25
2018-05-29T08:05:54.417Z,5180.63
2018-05-29T08:06:55.051Z,5152.50
2018-05-29T08:07:54.425Z,5360.63
2018-05-29T08:08:54.460Z,5540.63
2018-05-29T08:09:54.439Z,5383.13
2018-05-29T08:10:54.448Z,5096.25
2018-05-29T08:11:54.456Z,5146.88
2018-05-29T08:12:54.467Z,5045.63
2018-05-29T08:13:54.476Z,4955.63
2018-05-29T08:14:54.482Z,5400.00
2018-05-29T08:15:54.484Z,5827.50
2018-05-29T08:16:54.492Z,6249.38
2018-05-29T08:17:54.500Z,6294.38
2018-05-29T08:18:54.511Z,6035.63
2018-05-29T08:19:54.526Z,5523.75
2018-05-29T08:20:54.528Z,5130.00
2018-05-29T08:21:54.533Z,5349.38
2018-05-29T08:22:54.546Z,5692.50
2018-05-29T08:23:54.549Z,6013.13
2018-05-29T08:24:54.561Z,6080.63
2018-05-29T08:25:54.572Z,5709.38
2018-05-29T08:26:54.579Z,5585.63
2018-05-29T08:27:54.586Z,5810.63
2018-05-29T08:28:54.596Z,5805.00
2018-05-29T08:29:54.604Z,5816.25
2018-05-29T08:30:54.609Z,5895.00
2018-05-29T08:31:54.625Z,6058.13
2018-05-29T08:32:54.632Z,6108.75
2018-05-29T08:33:54.642Z,6091.88
2018-05-29T08:34:54.658Z,6007.50
2018-05-29T08:35:54.661Z,6041.25
2018-05-29T08:36:54.667Z,5895.00
2018-05-29T08:37:54.670Z,5788.13
2018-05-29T08:38:54.682Z,5670.00
2018-05-29T08:39:54.695Z,5816.25
2018-05-29T08:40:54.708Z,5900.63
2018-05-29T08:41:54.713Z,5765.63
2018-05-29T08:42:54.722Z,5366.25
2018-05-29T08:43:54.728Z,5281.88
2018-05-29T08:44:54.740Z,5546.25
2018-05-29T08:45:54.747Z,5743.13
2018-05-29T08:46:54.776Z,6001.88
2018-05-29T08:47:54.767Z,6221.25
2018-05-29T08:48:54.782Z,6373.13
2018-05-29T08:49:54.787Z,6322.50
2018-05-29T08:50:54.797Z,6221.25
2018-05-29T08:51:54.804Z,6204.38
2018-05-29T08:52:54.812Z,6159.38
2018-05-29T08:53:54.825Z,6316.88
2018-05-29T08:54:54.835Z,6221.25
2018-05-29T08:55:54.845Z,6125.63
2018-05-29T08:56:54.853Z,6063.75
2018-05-29T08:57:54.861Z,5900.63
2018-05-29T08:58:54.873Z,5900.63
2018-05-29T08:59:54.886Z,6114.38
2018-05-29T09:00:54.895Z,6350.63
2018-05-29T09:01:54.904Z,6536.25
2018-05-29T09:02:54.915Z,6598.13
2018-05-29T09:03:54.966Z,6592.50
2018-05-29T09:04:54.932Z,6705.00
2018-05-29T09:05:54.941Z,6553.13
2018-05-29T09:06:54.951Z,6384.38
2018-05-29T09:07:54.965Z,6294.38
2018-05-29T09:08:54.974Z,6361.88
2018-05-29T09:09:54.982Z,6508.13
2018-05-29T09:10:54.991Z,6491.25
2018-05-29T09:11:55.048Z,6435.00
2018-05-29T09:12:55.012Z,6508.13
2018-05-29T09:13:55.031Z,6631.88
2018-05-29T09:14:55.076Z,6620.63
2018-05-29T09:15:55.043Z,6631.88
2018-05-29T09:16:55.056Z,6710.63
2018-05-29T09:17:55.061Z,6676.88
2018-05-29T09:18:55.076Z,6502.50
2018-05-29T09:19:55.088Z,6215.63
2018-05-29T09:20:55.100Z,6035.63
2018-05-29T09:21:55.105Z,5765.63
2018-05-29T09:22:55.119Z,5788.13
2018-05-29T09:23:55.128Z,6198.75
2018-05-29T09:24:55.137Z,6755.63
2018-05-29T09:25:55.159Z,6868.13
2018-05-29T09:26:55.161Z,6716.25
2018-05-29T09:27:55.171Z,6238.13
2018-05-29T09:28:55.181Z,5805.00
2018-05-29T09:29:55.218Z,5653.13
2018-05-29T09:30:55.204Z,5529.38
2018-05-29T09:31:55.245Z,5698.13
2018-05-29T09:32:55.226Z,6091.88
2018-05-29T09:33:55.236Z,6356.25
2018-05-29T09:34:55.243Z,6665.63
2018-05-29T09:35:55.260Z,6828.75
2018-05-29T09:36:55.271Z,6901.88
2018-05-29T09:37:55.282Z,7014.38
2018-05-29T09:38:55.287Z,6817.50
2018-05-29T09:39:55.302Z,6660.00
2018-05-29T09:40:55.310Z,6699.38
2018-05-29T09:41:55.325Z,6738.75
2018-05-29T09:42:55.335Z,6485.63
2018-05-29T09:43:55.344Z,6429.38
2018-05-29T09:44:55.355Z,6423.75
2018-05-29T09:45:55.441Z,6581.25
2018-05-29T09:46:55.405Z,6643.13
2018-05-29T09:47:55.385Z,6603.75
2018-05-29T09:48:55.393Z,6412.50
2018-05-29T09:49:55.407Z,6035.63
2018-05-29T09:50:55.417Z,5748.75
2018-05-29T09:51:55.429Z,5827.50
2018-05-29T09:52:55.497Z,5956.88
2018-05-29T09:53:55.448Z,5872.50
2018-05-29T09:54:55.464Z,5726.25
2018-05-29T09:55:55.471Z,5703.75
2018-05-29T09:56:55.484Z,5850.00
2018-05-29T09:57:55.494Z,5816.25
2018-05-29T09:58:55.504Z,6018.75
2018-05-29T09:59:55.510Z,6541.88
2018-05-29T10:00:55.526Z,6592.50
2018-05-29T10:01:55.533Z,6373.13
2018-05-29T10:02:55.544Z,6243.75
2018-05-29T10:03:55.560Z,6401.25
2018-05-29T10:04:55.564Z,6316.88
2018-05-29T10:05:55.573Z,6058.13
2018-05-29T10:06:55.600Z,6024.38
2018-05-29T10:07:55.598Z,6131.25
2018-05-29T10:08:55.621Z,6215.63
2018-05-29T10:09:55.612Z,6305.63
2018-05-29T10:10:55.627Z,6153.75
2018-05-29T10:11:55.633Z,5838.75
2018-05-29T10:12:55.646Z,5641.88
2018-05-29T10:13:55.659Z,5883.75
2018-05-29T10:14:55.666Z,6221.25
2018-05-29T10:15:55.677Z,6440.63
2018-05-29T10:16:55.692Z,6609.38
2018-05-29T10:17:55.695Z,6463.13
2018-05-29T10:18:55.706Z,6412.50
2018-05-29T10:19:55.714Z,6570.00
2018-05-29T10:20:55.726Z,6519.38
2018-05-29T10:21:55.740Z,6086.25
2018-05-29T10:22:55.748Z,5135.63
2018-05-29T10:23:55.765Z,4657.50
2018-05-29T10:24:55.770Z,4291.88
2018-05-29T10:25:55.787Z,4415.63
2018-05-29T10:26:55.788Z,5315.63
2018-05-29T10:27:55.798Z,5720.63
2018-05-29T10:28:55.806Z,5557.50
2018-05-29T10:29:55.815Z,5726.25
2018-05-29T10:30:55.888Z,5968.13
2018-05-29T10:31:55.849Z,5945.63
2018-05-29T10:32:55.854Z,6091.88
2018-05-29T10:33:55.855Z,6148.13
2018-05-29T10:34:55.869Z,6468.75
2018-05-29T10:35:55.876Z,6378.75
2018-05-29T10:36:55.890Z,6226.88
2018-05-29T10:37:55.894Z,6187.50
2018-05-29T10:38:55.909Z,6063.75
2018-05-29T10:39:55.925Z,6153.75
2018-05-29T10:40:55.927Z,5844.38
2018-05-29T10:41:55.935Z,5641.88
2018-05-29T10:42:55.949Z,5546.25
2018-05-29T10:43:55.958Z,5709.38
2018-05-29T10:44:55.967Z,5973.75
2018-05-29T10:45:55.981Z,6103.13
2018-05-29T10:46:55.990Z,6125.63
2018-05-29T10:47:55.996Z,6148.13
2018-05-29T10:48:56.025Z,6069.38
2018-05-29T10:49:56.017Z,4336.88
2018-05-29T10:50:56.027Z,5180.63
2018-05-29T10:51:56.039Z,5158.13
2018-05-29T10:52:56.047Z,5248.13
2018-05-29T10:53:56.062Z,5332.50
2018-05-29T10:54:56.066Z,5163.75
2018-05-29T10:55:56.081Z,5107.50
2018-05-29T10:56:56.094Z,5096.25
2018-05-29T10:57:56.103Z,5445.00
2018-05-29T10:58:56.118Z,3020.63
2018-05-29T10:59:56.151Z,5523.75
2018-05-29T11:00:56.139Z,5647.50
2018-05-29T11:01:56.148Z,5349.38
2018-05-29T11:02:56.153Z,5214.38
2018-05-29T11:03:56.173Z,5146.88
2018-05-29T11:04:56.176Z,5118.75
2018-05-29T11:05:56.183Z,5175.00
2018-05-29T11:06:56.251Z,5461.88
2018-05-29T11:07:56.207Z,5281.88
2018-05-29T11:08:56.215Z,5028.75
2018-05-29T11:09:56.230Z,5175.00
2018-05-29T11:10:56.237Z,5169.38
2018-05-29T11:11:56.256Z,5056.88
2018-05-29T11:12:56.258Z,4775.63
2018-05-29T11:13:56.273Z,4725.00
2018-05-29T11:14:56.281Z,4876.88
2018-05-29T11:15:56.291Z,4916.25
2018-05-29T11:16:56.301Z,5236.88
2018-05-29T11:17:56.316Z,5248.13
2018-05-29T11:18:56.329Z,5085.00
2018-05-29T11:19:56.335Z,5113.13
2018-05-29T11:20:56.350Z,5068.13
2018-05-29T11:21:56.360Z,5062.50
2018-05-29T11:22:56.366Z,4905.00
2018-05-29T11:23:56.378Z,4685.63
2018-05-29T11:24:56.391Z,4713.75
2018-05-29T11:25:56.405Z,4758.75
2018-05-29T11:26:56.423Z,4983.75
2018-05-29T11:27:56.419Z,2025.00
2018-05-29T11:28:56.433Z,2919.38
2018-05-29T11:29:56.443Z,5990.63
2018-05-29T11:30:56.457Z,6204.38
2018-05-29T11:31:56.467Z,5574.38
2018-05-29T11:32:56.475Z,5225.63
2018-05-29T11:33:56.492Z,4831.88
2018-05-29T11:34:56.499Z,4966.88
2018-05-29T11:35:56.512Z,5338.13
2018-05-29T11:36:56.595Z,5490.00
2018-05-29T11:37:56.529Z,5450.63
2018-05-29T11:38:56.544Z,5568.75
2018-05-29T11:39:56.562Z,5568.75
2018-05-29T11:40:56.566Z,5377.50
2018-05-29T11:41:56.579Z,5130.00
2018-05-29T11:42:56.586Z,4882.50
2018-05-29T11:43:56.597Z,1597.50
2018-05-29T11:44:56.610Z,5383.13
2018-05-29T11:45:56.623Z,5265.00
2018-05-29T11:46:56.627Z,5191.88
2018-05-29T11:47:56.645Z,5169.38
2018-05-29T11:48:56.648Z,4353.75
2018-05-29T11:49:56.657Z,5259.38
2018-05-29T11:50:56.669Z,5118.75
2018-05-29T11:51:56.681Z,2424.38
2018-05-29T11:52:56.696Z,1485.00
2018-05-29T11:53:56.706Z,1648.13
2018-05-29T11:54:56.770Z,4888.13
2018-05-29T11:55:56.753Z,1698.75
2018-05-29T11:56:56.733Z,1586.25
2018-05-29T11:57:56.747Z,2210.63
2018-05-29T11:58:56.759Z,5158.13
2018-05-29T11:59:56.766Z,5096.25
2018-05-29T12:00:56.780Z,4387.50
2018-05-29T12:01:56.785Z,5265.00
2018-05-29T12:02:56.791Z,5276.25
2018-05-29T12:03:56.801Z,5265.00
2018-05-29T12:04:56.810Z,5051.25
2018-05-29T12:05:56.821Z,5023.13
2018-05-29T12:06:56.834Z,5011.88
2018-05-29T12:07:56.842Z,4955.63
2018-05-29T12:08:56.848Z,4921.88
2018-05-29T12:09:56.858Z,4803.75
2018-05-29T12:10:56.894Z,4651.88
2018-05-29T12:11:56.881Z,4651.88
2018-05-29T12:12:56.893Z,4635.00
2018-05-29T12:13:56.899Z,2064.38
2018-05-29T12:14:56.911Z,4522.50
2018-05-29T12:15:56.919Z,1288.13
2018-05-29T12:16:57.002Z,1327.50
2018-05-29T12:17:56.942Z,1535.63
2018-05-29T12:18:56.956Z,1704.38
2018-05-29T12:19:56.956Z,1766.25
2018-05-29T12:20:56.968Z,4702.50
2018-05-29T12:21:56.979Z,4528.13
2018-05-29T12:22:56.983Z,4044.38
2018-05-29T12:23:56.994Z,3881.25
2018-05-29T12:24:57.004Z,1344.38
2018-05-29T12:25:57.014Z,1293.75
2018-05-29T12:26:57.025Z,1310.63
2018-05-29T12:27:57.032Z,1372.50